sensor_id;sensor_type;location;lat;lon;timestamp;P1;durP1;ratioP1;P2;durP2;ratioP2
32032;SDS011;31720;52.638;9.216;2023-07-02T00:01:18;5.55;;;1.70;;
32032;SDS011;31720;52.638;9.216;2023-07-02T00:04:19;5.60;;;2.70;;
32032;SDS011;31720;52.638;9.216;2023-07-02T00:07:22;6.78;;;2.10;;
32032;SDS011;31720;52.638;9.216;2023-07-02T00:10:25;3.38;;;1.88;;
32032;SDS011;31720;52.638;9.216;2023-07-02T00:13:27;4.72;;;2.35;;
32032;SDS011;31720;52.638;9.216;2023-07-02T00:16:28;5.07;;;2.33;;
32032;SDS011;31720;52.638;9.216;2023-07-02T00:19:29;3.63;;;1.80;;
32032;SDS011;31720;52.638;9.216;2023-07-02T00:22:32;2.88;;;1.73;;
32032;SDS011;31720;52.638;9.216;2023-07-02T00:25:36;3.78;;;1.70;;
32032;SDS011;31720;52.638;9.216;2023-07-02T00:28:37;2.85;;;1.85;;
32032;SDS011;31720;52.638;9.216;2023-07-02T00:31:39;2.85;;;1.90;;
32032;SDS011;31720;52.638;9.216;2023-07-02T00:34:40;2.95;;;1.70;;
32032;SDS011;31720;52.638;9.216;2023-07-02T00:37:43;2.13;;;1.80;;
32032;SDS011;31720;52.638;9.216;2023-07-02T00:40:44;3.97;;;1.88;;
32032;SDS011;31720;52.638;9.216;2023-07-02T00:43:45;4.90;;;1.92;;
32032;SDS011;31720;52.638;9.216;2023-07-02T00:46:47;5.88;;;2.10;;
32032;SDS011;31720;52.638;9.216;2023-07-02T00:49:48;3.92;;;2.03;;
32032;SDS011;31720;52.638;9.216;2023-07-02T00:52:51;3.55;;;1.67;;
32032;SDS011;31720;52.638;9.216;2023-07-02T00:55:54;2.40;;;1.50;;
32032;SDS011;31720;52.638;9.216;2023-07-02T00:58:55;7.03;;;1.83;;
32032;SDS011;31720;52.638;9.216;2023-07-02T01:01:58;3.00;;;1.77;;
32032;SDS011;31720;52.638;9.216;2023-07-02T01:04:59;6.75;;;1.90;;
32032;SDS011;31720;52.638;9.216;2023-07-02T01:08:03;5.85;;;2.17;;
32032;SDS011;31720;52.638;9.216;2023-07-02T01:11:05;6.25;;;2.72;;
32032;SDS011;31720;52.638;9.216;2023-07-02T01:14:08;6.68;;;2.08;;
32032;SDS011;31720;52.638;9.216;2023-07-02T01:17:12;4.55;;;1.83;;
32032;SDS011;31720;52.638;9.216;2023-07-02T01:20:20;6.43;;;1.95;;
32032;SDS011;31720;52.638;9.216;2023-07-02T01:23:22;5.03;;;2.13;;
32032;SDS011;31720;52.638;9.216;2023-07-02T01:26:23;3.72;;;2.42;;
32032;SDS011;31720;52.638;9.216;2023-07-02T01:29:24;8.00;;;1.98;;
32032;SDS011;31720;52.638;9.216;2023-07-02T01:32:26;6.30;;;2.03;;
32032;SDS011;31720;52.638;9.216;2023-07-02T01:35:29;3.47;;;2.10;;
32032;SDS011;31720;52.638;9.216;2023-07-02T01:38:30;9.98;;;2.60;;
32032;SDS011;31720;52.638;9.216;2023-07-02T01:41:33;5.57;;;2.33;;
32032;SDS011;31720;52.638;9.216;2023-07-02T01:44:38;4.72;;;2.20;;
32032;SDS011;31720;52.638;9.216;2023-07-02T01:47:40;5.03;;;2.78;;
32032;SDS011;31720;52.638;9.216;2023-07-02T01:50:42;2.15;;;1.83;;
32032;SDS011;31720;52.638;9.216;2023-07-02T01:53:45;10.43;;;2.70;;
32032;SDS011;31720;52.638;9.216;2023-07-02T01:56:46;3.53;;;2.10;;
32032;SDS011;31720;52.638;9.216;2023-07-02T01:59:47;3.03;;;2.30;;
32032;SDS011;31720;52.638;9.216;2023-07-02T02:02:49;4.07;;;2.30;;
32032;SDS011;31720;52.638;9.216;2023-07-02T02:05:52;6.95;;;2.38;;
32032;SDS011;31720;52.638;9.216;2023-07-02T02:08:53;8.52;;;3.22;;
32032;SDS011;31720;52.638;9.216;2023-07-02T02:11:54;9.88;;;2.53;;
32032;SDS011;31720;52.638;9.216;2023-07-02T02:14:56;8.13;;;2.45;;
32032;SDS011;31720;52.638;9.216;2023-07-02T02:17:57;6.32;;;2.28;;
32032;SDS011;31720;52.638;9.216;2023-07-02T02:21:00;4.95;;;2.47;;
32032;SDS011;31720;52.638;9.216;2023-07-02T02:24:01;3.97;;;2.42;;
32032;SDS011;31720;52.638;9.216;2023-07-02T02:27:03;9.88;;;3.33;;
32032;SDS011;31720;52.638;9.216;2023-07-02T02:30:05;5.13;;;2.97;;
32032;SDS011;31720;52.638;9.216;2023-07-02T02:33:08;3.83;;;2.65;;
32032;SDS011;31720;52.638;9.216;2023-07-02T02:36:11;3.85;;;2.30;;
32032;SDS011;31720;52.638;9.216;2023-07-02T02:39:12;6.10;;;3.13;;
32032;SDS011;31720;52.638;9.216;2023-07-02T02:42:14;2.60;;;2.25;;
32032;SDS011;31720;52.638;9.216;2023-07-02T02:45:15;4.13;;;2.92;;
32032;SDS011;31720;52.638;9.216;2023-07-02T02:48:16;7.30;;;2.75;;
32032;SDS011;31720;52.638;9.216;2023-07-02T02:51:19;3.55;;;2.58;;
32032;SDS011;31720;52.638;9.216;2023-07-02T02:54:21;3.65;;;2.65;;
32032;SDS011;31720;52.638;9.216;2023-07-02T02:57:22;3.85;;;3.00;;
32032;SDS011;31720;52.638;9.216;2023-07-02T03:00:24;8.68;;;2.78;;
32032;SDS011;31720;52.638;9.216;2023-07-02T03:03:25;8.98;;;2.75;;
32032;SDS011;31720;52.638;9.216;2023-07-02T03:06:28;5.57;;;2.85;;
32032;SDS011;31720;52.638;9.216;2023-07-02T03:09:30;8.18;;;3.25;;
32032;SDS011;31720;52.638;9.216;2023-07-02T03:12:31;9.32;;;2.83;;
32032;SDS011;31720;52.638;9.216;2023-07-02T03:15:32;6.10;;;3.10;;
32032;SDS011;31720;52.638;9.216;2023-07-02T03:18:34;4.22;;;2.85;;
32032;SDS011;31720;52.638;9.216;2023-07-02T03:21:36;4.40;;;3.17;;
32032;SDS011;31720;52.638;9.216;2023-07-02T03:24:38;5.05;;;3.28;;
32032;SDS011;31720;52.638;9.216;2023-07-02T03:27:39;3.95;;;2.72;;
32032;SDS011;31720;52.638;9.216;2023-07-02T03:30:40;3.92;;;3.03;;
32032;SDS011;31720;52.638;9.216;2023-07-02T03:33:42;7.55;;;3.75;;
32032;SDS011;31720;52.638;9.216;2023-07-02T03:36:44;8.20;;;3.70;;
32032;SDS011;31720;52.638;9.216;2023-07-02T03:39:46;5.47;;;3.28;;
32032;SDS011;31720;52.638;9.216;2023-07-02T03:42:47;7.50;;;3.45;;
32032;SDS011;31720;52.638;9.216;2023-07-02T03:45:49;6.03;;;3.50;;
32032;SDS011;31720;52.638;9.216;2023-07-02T03:48:50;9.23;;;4.07;;
32032;SDS011;31720;52.638;9.216;2023-07-02T03:51:53;5.43;;;3.20;;
32032;SDS011;31720;52.638;9.216;2023-07-02T03:54:54;7.82;;;3.08;;
32032;SDS011;31720;52.638;9.216;2023-07-02T03:57:55;6.60;;;3.30;;
32032;SDS011;31720;52.638;9.216;2023-07-02T04:00:56;7.30;;;3.33;;
32032;SDS011;31720;52.638;9.216;2023-07-02T04:03:58;8.20;;;3.72;;
32032;SDS011;31720;52.638;9.216;2023-07-02T04:07:01;5.85;;;4.07;;
32032;SDS011;31720;52.638;9.216;2023-07-02T04:10:02;6.18;;;3.50;;
32032;SDS011;31720;52.638;9.216;2023-07-02T04:13:03;5.88;;;3.60;;
32032;SDS011;31720;52.638;9.216;2023-07-02T04:16:05;9.20;;;3.78;;
32032;SDS011;31720;52.638;9.216;2023-07-02T04:19:06;5.43;;;3.75;;
32032;SDS011;31720;52.638;9.216;2023-07-02T04:22:09;11.45;;;4.28;;
32032;SDS011;31720;52.638;9.216;2023-07-02T04:25:11;10.73;;;3.80;;
32032;SDS011;31720;52.638;9.216;2023-07-02T04:28:15;8.30;;;4.07;;
32032;SDS011;31720;52.638;9.216;2023-07-02T04:31:17;7.70;;;4.40;;
32032;SDS011;31720;52.638;9.216;2023-07-02T04:34:19;11.25;;;3.97;;
32032;SDS011;31720;52.638;9.216;2023-07-02T04:37:23;6.78;;;4.20;;
32032;SDS011;31720;52.638;9.216;2023-07-02T04:40:24;8.63;;;4.07;;
32032;SDS011;31720;52.638;9.216;2023-07-02T04:43:25;7.35;;;3.90;;
32032;SDS011;31720;52.638;9.216;2023-07-02T04:46:29;11.90;;;3.58;;
32032;SDS011;31720;52.638;9.216;2023-07-02T04:49:30;9.80;;;3.90;;
32032;SDS011;31720;52.638;9.216;2023-07-02T04:52:33;7.00;;;3.83;;
32032;SDS011;31720;52.638;9.216;2023-07-02T04:55:34;5.50;;;3.22;;
32032;SDS011;31720;52.638;9.216;2023-07-02T04:58:36;9.80;;;4.22;;
32032;SDS011;31720;52.638;9.216;2023-07-02T05:01:37;6.60;;;3.85;;
32032;SDS011;31720;52.638;9.216;2023-07-02T05:04:38;15.60;;;4.35;;
32032;SDS011;31720;52.638;9.216;2023-07-02T05:07:41;6.15;;;3.90;;
32032;SDS011;31720;52.638;9.216;2023-07-02T05:10:43;17.70;;;3.90;;
32032;SDS011;31720;52.638;9.216;2023-07-02T05:13:44;9.60;;;3.67;;
32032;SDS011;31720;52.638;9.216;2023-07-02T05:16:45;10.73;;;3.72;;
32032;SDS011;31720;52.638;9.216;2023-07-02T05:19:47;8.27;;;3.05;;
32032;SDS011;31720;52.638;9.216;2023-07-02T05:22:49;5.93;;;2.97;;
32032;SDS011;31720;52.638;9.216;2023-07-02T05:25:51;18.33;;;3.92;;
32032;SDS011;31720;52.638;9.216;2023-07-02T05:28:52;10.23;;;3.00;;
32032;SDS011;31720;52.638;9.216;2023-07-02T05:31:53;10.18;;;3.20;;
32032;SDS011;31720;52.638;9.216;2023-07-02T05:34:55;9.48;;;4.05;;
32032;SDS011;31720;52.638;9.216;2023-07-02T05:37:57;11.02;;;3.60;;
32032;SDS011;31720;52.638;9.216;2023-07-02T05:40:58;6.50;;;2.92;;
32032;SDS011;31720;52.638;9.216;2023-07-02T05:44:00;8.73;;;3.13;;
32032;SDS011;31720;52.638;9.216;2023-07-02T05:47:01;13.05;;;2.97;;
32032;SDS011;31720;52.638;9.216;2023-07-02T05:50:03;12.35;;;4.03;;
32032;SDS011;31720;52.638;9.216;2023-07-02T05:53:07;14.00;;;3.40;;
32032;SDS011;31720;52.638;9.216;2023-07-02T05:56:09;17.85;;;3.95;;
32032;SDS011;31720;52.638;9.216;2023-07-02T05:59:10;8.60;;;3.65;;
32032;SDS011;31720;52.638;9.216;2023-07-02T06:02:14;13.65;;;3.58;;
32032;SDS011;31720;52.638;9.216;2023-07-02T06:05:16;14.18;;;3.60;;
32032;SDS011;31720;52.638;9.216;2023-07-02T06:08:18;8.05;;;3.28;;
32032;SDS011;31720;52.638;9.216;2023-07-02T06:11:20;11.75;;;3.63;;
32032;SDS011;31720;52.638;9.216;2023-07-02T06:14:21;13.23;;;3.88;;
32032;SDS011;31720;52.638;9.216;2023-07-02T06:17:25;9.32;;;3.30;;
32032;SDS011;31720;52.638;9.216;2023-07-02T06:20:26;8.70;;;3.03;;
32032;SDS011;31720;52.638;9.216;2023-07-02T06:23:29;15.88;;;3.90;;
32032;SDS011;31720;52.638;9.216;2023-07-02T06:26:40;14.43;;;4.68;;
32032;SDS011;31720;52.638;9.216;2023-07-02T06:29:41;11.57;;;3.53;;
32032;SDS011;31720;52.638;9.216;2023-07-02T06:32:42;14.63;;;4.40;;
32032;SDS011;31720;52.638;9.216;2023-07-02T06:35:44;12.45;;;3.83;;
32032;SDS011;31720;52.638;9.216;2023-07-02T06:38:46;11.32;;;3.80;;
32032;SDS011;31720;52.638;9.216;2023-07-02T06:41:48;12.45;;;4.07;;
32032;SDS011;31720;52.638;9.216;2023-07-02T06:44:49;13.23;;;4.15;;
32032;SDS011;31720;52.638;9.216;2023-07-02T06:47:50;12.02;;;4.65;;
32032;SDS011;31720;52.638;9.216;2023-07-02T06:50:52;13.35;;;3.50;;
32032;SDS011;31720;52.638;9.216;2023-07-02T06:53:54;14.23;;;4.22;;
32032;SDS011;31720;52.638;9.216;2023-07-02T06:56:56;7.90;;;3.88;;
32032;SDS011;31720;52.638;9.216;2023-07-02T06:59:57;7.28;;;3.75;;
32032;SDS011;31720;52.638;9.216;2023-07-02T07:02:59;13.02;;;4.13;;
32032;SDS011;31720;52.638;9.216;2023-07-02T07:06:01;18.90;;;5.18;;
32032;SDS011;31720;52.638;9.216;2023-07-02T07:09:04;12.95;;;3.92;;
32032;SDS011;31720;52.638;9.216;2023-07-02T07:12:05;23.38;;;4.40;;
32032;SDS011;31720;52.638;9.216;2023-07-02T07:15:08;14.75;;;4.30;;
32032;SDS011;31720;52.638;9.216;2023-07-02T07:18:10;23.95;;;4.82;;
32032;SDS011;31720;52.638;9.216;2023-07-02T07:21:12;14.77;;;3.90;;
32032;SDS011;31720;52.638;9.216;2023-07-02T07:24:14;15.02;;;3.38;;
32032;SDS011;31720;52.638;9.216;2023-07-02T07:27:16;14.25;;;3.75;;
32032;SDS011;31720;52.638;9.216;2023-07-02T07:30:17;19.52;;;4.38;;
32032;SDS011;31720;52.638;9.216;2023-07-02T07:33:22;11.27;;;3.38;;
32032;SDS011;31720;52.638;9.216;2023-07-02T07:36:23;12.98;;;3.85;;
32032;SDS011;31720;52.638;9.216;2023-07-02T07:39:26;12.50;;;3.72;;
32032;SDS011;31720;52.638;9.216;2023-07-02T07:42:27;10.73;;;3.85;;
32032;SDS011;31720;52.638;9.216;2023-07-02T07:45:28;17.80;;;3.95;;
32032;SDS011;31720;52.638;9.216;2023-07-02T07:48:30;11.85;;;4.05;;
32032;SDS011;31720;52.638;9.216;2023-07-02T07:51:31;10.38;;;3.80;;
32032;SDS011;31720;52.638;9.216;2023-07-02T07:54:34;12.80;;;4.45;;
32032;SDS011;31720;52.638;9.216;2023-07-02T07:57:36;19.63;;;3.92;;
32032;SDS011;31720;52.638;9.216;2023-07-02T08:00:38;11.52;;;3.58;;
32032;SDS011;31720;52.638;9.216;2023-07-02T08:03:39;13.32;;;4.05;;
32032;SDS011;31720;52.638;9.216;2023-07-02T08:06:40;11.27;;;3.60;;
32032;SDS011;31720;52.638;9.216;2023-07-02T08:09:43;9.57;;;3.70;;
32032;SDS011;31720;52.638;9.216;2023-07-02T08:12:44;12.93;;;3.85;;
32032;SDS011;31720;52.638;9.216;2023-07-02T08:15:47;10.20;;;3.75;;
32032;SDS011;31720;52.638;9.216;2023-07-02T08:18:48;20.02;;;3.70;;
32032;SDS011;31720;52.638;9.216;2023-07-02T08:21:49;12.25;;;3.17;;
32032;SDS011;31720;52.638;9.216;2023-07-02T08:24:52;17.73;;;4.38;;
32032;SDS011;31720;52.638;9.216;2023-07-02T08:27:54;10.68;;;3.78;;
32032;SDS011;31720;52.638;9.216;2023-07-02T08:30:56;8.68;;;3.58;;
32032;SDS011;31720;52.638;9.216;2023-07-02T08:33:57;17.70;;;4.22;;
32032;SDS011;31720;52.638;9.216;2023-07-02T08:36:58;15.50;;;4.10;;
32032;SDS011;31720;52.638;9.216;2023-07-02T08:40:01;10.02;;;3.40;;
32032;SDS011;31720;52.638;9.216;2023-07-02T08:43:04;8.55;;;4.45;;
32032;SDS011;31720;52.638;9.216;2023-07-02T08:46:06;9.80;;;3.05;;
32032;SDS011;31720;52.638;9.216;2023-07-02T08:49:08;10.93;;;3.30;;
32032;SDS011;31720;52.638;9.216;2023-07-02T08:52:10;9.00;;;3.30;;
32032;SDS011;31720;52.638;9.216;2023-07-02T08:55:12;7.63;;;3.15;;
32032;SDS011;31720;52.638;9.216;2023-07-02T08:58:14;13.25;;;3.47;;
32032;SDS011;31720;52.638;9.216;2023-07-02T09:01:16;12.20;;;3.78;;
32032;SDS011;31720;52.638;9.216;2023-07-02T09:04:18;10.43;;;3.17;;
32032;SDS011;31720;52.638;9.216;2023-07-02T09:07:20;8.02;;;2.95;;
32032;SDS011;31720;52.638;9.216;2023-07-02T09:10:26;11.15;;;3.80;;
32032;SDS011;31720;52.638;9.216;2023-07-02T09:13:28;11.07;;;3.80;;
32032;SDS011;31720;52.638;9.216;2023-07-02T09:16:30;13.25;;;3.40;;
32032;SDS011;31720;52.638;9.216;2023-07-02T09:19:35;10.23;;;3.60;;
32032;SDS011;31720;52.638;9.216;2023-07-02T09:22:37;13.27;;;3.42;;
32032;SDS011;31720;52.638;9.216;2023-07-02T09:25:43;9.75;;;3.33;;
32032;SDS011;31720;52.638;9.216;2023-07-02T09:28:44;13.05;;;4.38;;
32032;SDS011;31720;52.638;9.216;2023-07-02T09:31:46;10.48;;;3.38;;
32032;SDS011;31720;52.638;9.216;2023-07-02T09:34:47;9.93;;;3.67;;
32032;SDS011;31720;52.638;9.216;2023-07-02T09:37:49;14.50;;;3.50;;
32032;SDS011;31720;52.638;9.216;2023-07-02T09:40:53;11.65;;;4.22;;
32032;SDS011;31720;52.638;9.216;2023-07-02T09:43:55;10.30;;;3.80;;
32032;SDS011;31720;52.638;9.216;2023-07-02T09:46:58;5.78;;;2.78;;
32032;SDS011;31720;52.638;9.216;2023-07-02T09:50:03;11.00;;;3.63;;
32032;SDS011;31720;52.638;9.216;2023-07-02T09:53:06;8.82;;;3.38;;
32032;SDS011;31720;52.638;9.216;2023-07-02T09:56:09;13.15;;;3.63;;
32032;SDS011;31720;52.638;9.216;2023-07-02T09:59:11;11.65;;;3.80;;
32032;SDS011;31720;52.638;9.216;2023-07-02T10:02:12;11.55;;;3.33;;
32032;SDS011;31720;52.638;9.216;2023-07-02T10:05:24;9.10;;;3.25;;
32032;SDS011;31720;52.638;9.216;2023-07-02T10:08:26;11.48;;;3.95;;
32032;SDS011;31720;52.638;9.216;2023-07-02T10:11:34;9.55;;;3.28;;
32032;SDS011;31720;52.638;9.216;2023-07-02T10:14:42;10.73;;;3.38;;
32032;SDS011;31720;52.638;9.216;2023-07-02T10:17:54;9.00;;;3.10;;
32032;SDS011;31720;52.638;9.216;2023-07-02T10:20:56;10.07;;;3.25;;
32032;SDS011;31720;52.638;9.216;2023-07-02T10:24:08;7.45;;;2.72;;
32032;SDS011;31720;52.638;9.216;2023-07-02T10:27:11;10.30;;;3.17;;
32032;SDS011;31720;52.638;9.216;2023-07-02T10:30:12;9.80;;;2.97;;
32032;SDS011;31720;52.638;9.216;2023-07-02T10:33:14;15.82;;;3.80;;
32032;SDS011;31720;52.638;9.216;2023-07-02T10:36:19;9.52;;;2.92;;
32032;SDS011;31720;52.638;9.216;2023-07-02T10:39:21;13.55;;;4.30;;
32032;SDS011;31720;52.638;9.216;2023-07-02T10:42:24;9.48;;;2.72;;
32032;SDS011;31720;52.638;9.216;2023-07-02T10:45:32;8.15;;;3.17;;
32032;SDS011;31720;52.638;9.216;2023-07-02T10:48:34;9.23;;;2.75;;
32032;SDS011;31720;52.638;9.216;2023-07-02T10:51:35;12.07;;;3.95;;
32032;SDS011;31720;52.638;9.216;2023-07-02T10:54:40;14.15;;;3.30;;
32032;SDS011;31720;52.638;9.216;2023-07-02T10:57:43;10.32;;;3.10;;
32032;SDS011;31720;52.638;9.216;2023-07-02T11:00:45;10.57;;;3.08;;
32032;SDS011;31720;52.638;9.216;2023-07-02T11:03:54;9.20;;;2.95;;
32032;SDS011;31720;52.638;9.216;2023-07-02T11:06:56;10.07;;;2.65;;
32032;SDS011;31720;52.638;9.216;2023-07-02T11:09:58;9.05;;;3.25;;
32032;SDS011;31720;52.638;9.216;2023-07-02T11:13:10;5.90;;;2.63;;
32032;SDS011;31720;52.638;9.216;2023-07-02T11:16:22;8.65;;;2.85;;
32032;SDS011;31720;52.638;9.216;2023-07-02T11:19:25;7.82;;;3.28;;
32032;SDS011;31720;52.638;9.216;2023-07-02T11:22:30;11.43;;;3.38;;
32032;SDS011;31720;52.638;9.216;2023-07-02T11:25:32;7.30;;;2.58;;
32032;SDS011;31720;52.638;9.216;2023-07-02T11:28:35;8.50;;;2.35;;
32032;SDS011;31720;52.638;9.216;2023-07-02T11:31:37;6.55;;;2.47;;
32032;SDS011;31720;52.638;9.216;2023-07-02T11:34:38;8.35;;;3.08;;
32032;SDS011;31720;52.638;9.216;2023-07-02T11:37:40;7.20;;;2.67;;
32032;SDS011;31720;52.638;9.216;2023-07-02T11:40:42;9.32;;;2.58;;
32032;SDS011;31720;52.638;9.216;2023-07-02T11:43:44;7.00;;;2.83;;
32032;SDS011;31720;52.638;9.216;2023-07-02T11:46:46;8.38;;;2.95;;
32032;SDS011;31720;52.638;9.216;2023-07-02T11:49:48;10.38;;;2.88;;
32032;SDS011;31720;52.638;9.216;2023-07-02T11:52:49;8.73;;;3.47;;
32032;SDS011;31720;52.638;9.216;2023-07-02T11:55:50;5.50;;;3.13;;
32032;SDS011;31720;52.638;9.216;2023-07-02T11:58:53;10.25;;;2.63;;
32032;SDS011;31720;52.638;9.216;2023-07-02T12:01:55;6.75;;;2.92;;
32032;SDS011;31720;52.638;9.216;2023-07-02T12:04:56;6.78;;;2.83;;
32032;SDS011;31720;52.638;9.216;2023-07-02T12:07:57;8.88;;;3.22;;
32032;SDS011;31720;52.638;9.216;2023-07-02T12:10:59;7.22;;;2.67;;
32032;SDS011;31720;52.638;9.216;2023-07-02T12:14:01;8.35;;;3.20;;
32032;SDS011;31720;52.638;9.216;2023-07-02T12:17:03;11.93;;;3.80;;
32032;SDS011;31720;52.638;9.216;2023-07-02T12:20:05;8.43;;;2.78;;
32032;SDS011;31720;52.638;9.216;2023-07-02T12:23:07;12.30;;;3.45;;
32032;SDS011;31720;52.638;9.216;2023-07-02T12:26:09;11.07;;;2.90;;
32032;SDS011;31720;52.638;9.216;2023-07-02T12:29:12;7.07;;;2.88;;
32032;SDS011;31720;52.638;9.216;2023-07-02T12:32:13;4.63;;;2.80;;
32032;SDS011;31720;52.638;9.216;2023-07-02T12:35:14;9.63;;;2.58;;
32032;SDS011;31720;52.638;9.216;2023-07-02T12:38:16;8.00;;;3.03;;
32032;SDS011;31720;52.638;9.216;2023-07-02T12:41:17;9.80;;;2.65;;
32032;SDS011;31720;52.638;9.216;2023-07-02T12:44:20;8.77;;;3.25;;
32032;SDS011;31720;52.638;9.216;2023-07-02T12:47:21;10.93;;;4.63;;
32032;SDS011;31720;52.638;9.216;2023-07-02T12:50:22;10.50;;;3.40;;
32032;SDS011;31720;52.638;9.216;2023-07-02T12:53:24;10.10;;;2.65;;
32032;SDS011;31720;52.638;9.216;2023-07-02T12:56:26;6.10;;;2.63;;
32032;SDS011;31720;52.638;9.216;2023-07-02T12:59:29;6.07;;;2.30;;
32032;SDS011;31720;52.638;9.216;2023-07-02T13:02:30;9.15;;;3.38;;
32032;SDS011;31720;52.638;9.216;2023-07-02T13:05:31;7.00;;;2.65;;
32032;SDS011;31720;52.638;9.216;2023-07-02T13:08:33;7.78;;;3.13;;
32032;SDS011;31720;52.638;9.216;2023-07-02T13:11:34;8.70;;;2.60;;
32032;SDS011;31720;52.638;9.216;2023-07-02T13:14:37;7.45;;;2.65;;
32032;SDS011;31720;52.638;9.216;2023-07-02T13:17:38;9.35;;;3.08;;
32032;SDS011;31720;52.638;9.216;2023-07-02T13:20:41;10.07;;;3.33;;
32032;SDS011;31720;52.638;9.216;2023-07-02T13:23:42;6.88;;;2.63;;
32032;SDS011;31720;52.638;9.216;2023-07-02T13:26:44;12.40;;;4.13;;
32032;SDS011;31720;52.638;9.216;2023-07-02T13:29:47;9.35;;;2.50;;
32032;SDS011;31720;52.638;9.216;2023-07-02T13:32:48;7.65;;;2.83;;
32032;SDS011;31720;52.638;9.216;2023-07-02T13:35:49;8.45;;;2.65;;
32032;SDS011;31720;52.638;9.216;2023-07-02T13:38:51;8.05;;;2.22;;
32032;SDS011;31720;52.638;9.216;2023-07-02T13:41:52;5.75;;;2.50;;
32032;SDS011;31720;52.638;9.216;2023-07-02T13:44:54;5.35;;;2.40;;
32032;SDS011;31720;52.638;9.216;2023-07-02T13:47:56;6.93;;;1.92;;
32032;SDS011;31720;52.638;9.216;2023-07-02T13:50:57;7.00;;;2.38;;
32032;SDS011;31720;52.638;9.216;2023-07-02T13:53:58;5.88;;;1.98;;
32032;SDS011;31720;52.638;9.216;2023-07-02T13:57:00;7.95;;;3.00;;
32032;SDS011;31720;52.638;9.216;2023-07-02T14:00:03;5.22;;;2.20;;
32032;SDS011;31720;52.638;9.216;2023-07-02T14:03:06;7.63;;;2.60;;
32032;SDS011;31720;52.638;9.216;2023-07-02T14:06:07;10.85;;;2.83;;
32032;SDS011;31720;52.638;9.216;2023-07-02T14:09:09;2.88;;;1.70;;
32032;SDS011;31720;52.638;9.216;2023-07-02T14:12:11;3.70;;;1.73;;
32032;SDS011;31720;52.638;9.216;2023-07-02T14:15:13;6.72;;;2.42;;
32032;SDS011;31720;52.638;9.216;2023-07-02T14:18:15;3.72;;;2.25;;
32032;SDS011;31720;52.638;9.216;2023-07-02T14:21:16;5.60;;;2.05;;
32032;SDS011;31720;52.638;9.216;2023-07-02T14:24:18;8.55;;;2.47;;
32032;SDS011;31720;52.638;9.216;2023-07-02T14:27:19;3.90;;;1.92;;
32032;SDS011;31720;52.638;9.216;2023-07-02T14:30:22;4.57;;;2.03;;
32032;SDS011;31720;52.638;9.216;2023-07-02T14:33:23;6.22;;;2.25;;
32032;SDS011;31720;52.638;9.216;2023-07-02T14:36:25;5.88;;;1.90;;
32032;SDS011;31720;52.638;9.216;2023-07-02T14:39:26;4.43;;;2.17;;
32032;SDS011;31720;52.638;9.216;2023-07-02T14:42:27;7.85;;;2.47;;
32032;SDS011;31720;52.638;9.216;2023-07-02T14:45:30;5.50;;;2.40;;
32032;SDS011;31720;52.638;9.216;2023-07-02T14:48:31;5.65;;;1.77;;
32032;SDS011;31720;52.638;9.216;2023-07-02T14:51:33;9.63;;;2.35;;
32032;SDS011;31720;52.638;9.216;2023-07-02T14:54:34;7.97;;;2.40;;
32032;SDS011;31720;52.638;9.216;2023-07-02T14:57:35;5.28;;;2.05;;
32032;SDS011;31720;52.638;9.216;2023-07-02T15:00:43;5.45;;;2.17;;
32032;SDS011;31720;52.638;9.216;2023-07-02T15:03:45;6.80;;;2.20;;
32032;SDS011;31720;52.638;9.216;2023-07-02T15:06:47;6.72;;;2.63;;
32032;SDS011;31720;52.638;9.216;2023-07-02T15:09:48;5.13;;;2.38;;
32032;SDS011;31720;52.638;9.216;2023-07-02T15:12:49;6.30;;;2.22;;
32032;SDS011;31720;52.638;9.216;2023-07-02T15:15:52;5.07;;;2.03;;
32032;SDS011;31720;52.638;9.216;2023-07-02T15:18:54;5.13;;;2.33;;
32032;SDS011;31720;52.638;9.216;2023-07-02T15:21:55;4.60;;;2.13;;
32032;SDS011;31720;52.638;9.216;2023-07-02T15:24:56;6.68;;;1.73;;
32032;SDS011;31720;52.638;9.216;2023-07-02T15:27:58;6.97;;;2.47;;
32032;SDS011;31720;52.638;9.216;2023-07-02T15:31:01;8.23;;;2.40;;
32032;SDS011;31720;52.638;9.216;2023-07-02T15:34:04;10.48;;;2.03;;
32032;SDS011;31720;52.638;9.216;2023-07-02T15:37:05;3.45;;;1.90;;
32032;SDS011;31720;52.638;9.216;2023-07-02T15:40:07;3.63;;;1.88;;
32032;SDS011;31720;52.638;9.216;2023-07-02T15:43:09;4.57;;;1.50;;
32032;SDS011;31720;52.638;9.216;2023-07-02T15:46:13;8.70;;;1.60;;
32032;SDS011;31720;52.638;9.216;2023-07-02T15:49:16;4.95;;;1.90;;
32032;SDS011;31720;52.638;9.216;2023-07-02T15:52:18;6.05;;;1.63;;
32032;SDS011;31720;52.638;9.216;2023-07-02T15:55:20;4.18;;;1.58;;
32032;SDS011;31720;52.638;9.216;2023-07-02T15:58:22;3.25;;;1.65;;
32032;SDS011;31720;52.638;9.216;2023-07-02T16:01:24;5.82;;;1.88;;
32032;SDS011;31720;52.638;9.216;2023-07-02T16:04:27;6.40;;;2.08;;
32032;SDS011;31720;52.638;9.216;2023-07-02T16:07:28;2.88;;;1.27;;
32032;SDS011;31720;52.638;9.216;2023-07-02T16:10:30;3.05;;;1.40;;
32032;SDS011;31720;52.638;9.216;2023-07-02T16:13:31;5.72;;;1.60;;
32032;SDS011;31720;52.638;9.216;2023-07-02T16:16:34;4.80;;;1.75;;
32032;SDS011;31720;52.638;9.216;2023-07-02T16:19:37;3.15;;;1.05;;
32032;SDS011;31720;52.638;9.216;2023-07-02T16:22:38;4.53;;;1.75;;
32032;SDS011;31720;52.638;9.216;2023-07-02T16:25:40;3.70;;;1.55;;
32032;SDS011;31720;52.638;9.216;2023-07-02T16:28:41;4.97;;;1.80;;
32032;SDS011;31720;52.638;9.216;2023-07-02T16:31:46;4.28;;;1.90;;
32032;SDS011;31720;52.638;9.216;2023-07-02T16:34:48;5.72;;;1.38;;
32032;SDS011;31720;52.638;9.216;2023-07-02T16:37:51;5.43;;;1.45;;
32032;SDS011;31720;52.638;9.216;2023-07-02T16:40:52;7.93;;;1.70;;
32032;SDS011;31720;52.638;9.216;2023-07-02T16:43:54;5.40;;;2.08;;
32032;SDS011;31720;52.638;9.216;2023-07-02T16:46:57;3.67;;;1.67;;
32032;SDS011;31720;52.638;9.216;2023-07-02T16:49:59;4.68;;;1.40;;
32032;SDS011;31720;52.638;9.216;2023-07-02T16:53:00;6.00;;;1.48;;
32032;SDS011;31720;52.638;9.216;2023-07-02T16:56:02;3.35;;;1.65;;
32032;SDS011;31720;52.638;9.216;2023-07-02T16:59:06;4.55;;;1.80;;
32032;SDS011;31720;52.638;9.216;2023-07-02T17:02:10;4.10;;;1.60;;
32032;SDS011;31720;52.638;9.216;2023-07-02T17:05:11;2.72;;;1.52;;
32032;SDS011;31720;52.638;9.216;2023-07-02T17:08:12;5.57;;;1.85;;
32032;SDS011;31720;52.638;9.216;2023-07-02T17:11:14;4.60;;;1.65;;
32032;SDS011;31720;52.638;9.216;2023-07-02T17:14:15;6.20;;;2.05;;
32032;SDS011;31720;52.638;9.216;2023-07-02T17:17:22;5.10;;;1.80;;
32032;SDS011;31720;52.638;9.216;2023-07-02T17:20:27;4.55;;;1.98;;
32032;SDS011;31720;52.638;9.216;2023-07-02T17:23:28;5.60;;;1.90;;
32032;SDS011;31720;52.638;9.216;2023-07-02T17:26:29;7.55;;;1.73;;
32032;SDS011;31720;52.638;9.216;2023-07-02T17:29:31;4.35;;;1.70;;
32032;SDS011;31720;52.638;9.216;2023-07-02T17:32:33;6.10;;;2.45;;
32032;SDS011;31720;52.638;9.216;2023-07-02T17:35:37;5.60;;;2.17;;
32032;SDS011;31720;52.638;9.216;2023-07-02T17:38:39;4.90;;;1.95;;
32032;SDS011;31720;52.638;9.216;2023-07-02T17:41:40;4.43;;;1.92;;
32032;SDS011;31720;52.638;9.216;2023-07-02T17:44:42;5.20;;;2.47;;
32032;SDS011;31720;52.638;9.216;2023-07-02T17:47:46;3.78;;;1.92;;
32032;SDS011;31720;52.638;9.216;2023-07-02T17:50:52;6.45;;;1.92;;
32032;SDS011;31720;52.638;9.216;2023-07-02T17:53:54;6.90;;;2.28;;
32032;SDS011;31720;52.638;9.216;2023-07-02T17:56:56;8.73;;;2.25;;
32032;SDS011;31720;52.638;9.216;2023-07-02T17:59:57;4.75;;;1.88;;
32032;SDS011;31720;52.638;9.216;2023-07-02T18:03:01;6.47;;;1.98;;
32032;SDS011;31720;52.638;9.216;2023-07-02T18:06:02;4.20;;;1.70;;
32032;SDS011;31720;52.638;9.216;2023-07-02T18:09:03;6.28;;;2.08;;
32032;SDS011;31720;52.638;9.216;2023-07-02T18:12:05;5.55;;;2.17;;